Time;durP1;ratioP1;P1;durP2;ratioP2;P2;SDS_P1;SDS_P2;PMS_P1;PMS_P2;Temp;Humidity;BMP_temperature;BMP_pressure;BME280_temperature;BME280_humidity;BME280_pressure;Samples;Min_cycle;Max_cycle;Signal;HPM_P1;HPM_P2
2021/07/05 00:02:11;;;;;;;13.40;7.93;;;;;;;20.43;60.12;99585.13;5002185;28;100286;-84
2021/07/05 00:04:37;;;;;;;11.48;8.20;;;;;;;20.25;60.69;99590.25;5002146;28;96719;-84
2021/07/05 00:07:04;;;;;;;11.98;8.05;;;;;;;20.10;61.11;99568.38;5002483;28;96907;-84
2021/07/05 00:09:30;;;;;;;17.67;7.85;;;;;;;20.22;61.27;99594.00;5001642;28;102034;-84
2021/07/05 00:11:56;;;;;;;10.70;7.75;;;;;;;20.15;61.39;99584.00;5001225;28;97572;-84
2021/07/05 00:14:22;;;;;;;11.65;8.18;;;;;;;20.02;61.48;99569.06;4985363;28;96770;-86
2021/07/05 00:16:47;;;;;;;14.52;7.97;;;;;;;20.13;61.62;99592.13;5002196;28;96885;-84
2021/07/05 00:19:13;;;;;;;11.02;7.93;;;;;;;20.03;61.69;99572.56;5016685;27;97531;-84
2021/07/05 00:21:39;;;;;;;10.10;7.85;;;;;;;20.16;61.45;99593.66;5021573;27;101373;-84
2021/07/05 00:24:05;;;;;;;12.07;8.63;;;;;;;20.22;61.01;99595.84;5021998;27;96583;-84
2021/07/05 00:26:31;;;;;;;9.45;7.57;;;;;;;19.85;61.49;99556.34;5038417;27;96941;-84
2021/07/05 00:28:57;;;;;;;8.90;7.60;;;;;;;20.06;61.43;99596.28;5055348;27;98049;-84
2021/07/05 00:31:22;;;;;;;10.05;8.38;;;;;;;19.98;61.53;99586.25;5025456;27;101131;-85
2021/07/05 00:33:48;;;;;;;10.48;8.10;;;;;;;19.83;61.68;99569.75;5041285;27;96959;-85
2021/07/05 00:36:14;;;;;;;11.02;8.38;;;;;;;19.96;61.76;99595.38;5040614;27;96844;-85
2021/07/05 00:38:39;;;;;;;11.13;7.93;;;;;;;19.90;61.73;99586.09;5056378;27;98317;-84
2021/07/05 00:41:05;;;;;;;14.63;7.63;;;;;;;19.89;62.12;99590.53;5041267;27;99853;-84
2021/07/05 00:43:31;;;;;;;9.70;7.97;;;;;;;19.75;62.20;99582.03;5041097;27;96591;-84
2021/07/05 00:45:57;;;;;;;13.45;8.02;;;;;;;19.69;62.54;99586.06;5041697;27;97174;-84
2021/07/05 00:48:24;;;;;;;11.52;8.65;;;;;;;19.68;62.26;99582.53;5057407;27;99989;-86
2021/07/05 00:50:50;;;;;;;12.50;8.30;;;;;;;19.61;62.25;99557.41;5041453;27;100799;-84
2021/07/05 00:53:16;;;;;;;10.85;7.85;;;;;;;19.81;62.07;99584.19;5058283;27;97657;-85
2021/07/05 00:55:42;;;;;;;12.80;7.80;;;;;;;19.55;62.48;99563.25;5020055;27;96951;-84
2021/07/05 00:58:07;;;;;;;14.07;8.48;;;;;;;19.75;62.38;99582.91;5020021;27;101027;-86
2021/07/05 01:00:33;;;;;;;11.15;8.60;;;;;;;19.72;62.15;99575.13;5054372;27;98267;-86
2021/07/05 01:02:59;;;;;;;11.70;7.88;;;;;;;19.63;62.59;99584.75;5055455;27;96629;-84
2021/07/05 01:05:25;;;;;;;12.32;8.68;;;;;;;19.61;62.76;99580.50;5038530;27;96848;-85
2021/07/05 01:07:51;;;;;;;11.10;8.35;;;;;;;19.51;63.06;99576.91;5024354;27;101784;-84
2021/07/05 01:10:18;;;;;;;8.50;7.43;;;;;;;19.26;63.12;99540.81;5041564;27;98334;-84
2021/07/05 01:12:45;;;;;;;10.95;7.95;;;;;;;19.40;63.10;99556.50;5023494;27;97159;-86
2021/07/05 01:15:13;;;;;;;10.85;7.55;;;;;;;19.49;63.14;99579.72;5057506;27;96987;-85
2021/07/05 01:17:40;;;;;;;10.00;8.18;;;;;;;19.46;63.09;99582.63;5023713;27;101681;-84
2021/07/05 01:20:07;;;;;;;13.18;7.97;;;;;;;19.31;63.38;99586.53;5023553;27;101327;-84
2021/07/05 01:22:32;;;;;;;9.18;8.20;;;;;;;19.30;63.39;99576.88;5024064;27;96622;-85
2021/07/05 01:24:58;;;;;;;9.77;8.23;;;;;;;19.26;63.79;99583.41;5058658;27;96781;-84
2021/07/05 01:27:24;;;;;;;8.82;7.93;;;;;;;19.16;63.73;99570.84;5040794;27;101221;-88
2021/07/05 01:29:50;;;;;;;11.55;8.65;;;;;;;19.22;63.61;99582.81;5023776;27;100846;-84
2021/07/05 01:32:16;;;;;;;10.68;8.27;;;;;;;19.20;63.45;99574.13;5041455;27;96590;-84
2021/07/05 01:34:41;;;;;;;12.15;8.15;;;;;;;19.13;63.57;99570.25;5056456;27;97503;-84
2021/07/05 01:37:08;;;;;;;10.27;8.00;;;;;;;19.21;63.56;99578.47;5040263;27;101204;-84
2021/07/05 01:39:34;;;;;;;8.57;7.28;;;;;;;19.35;63.20;99593.31;5023071;27;100330;-85
2021/07/05 01:41:59;;;;;;;9.13;7.88;;;;;;;19.28;63.81;99597.44;5024062;27;96765;-85
2021/07/05 01:44:25;;;;;;;12.52;7.90;;;;;;;19.31;63.60;99597.19;5024101;27;96953;-88
2021/07/05 01:46:51;;;;;;;11.00;8.10;;;;;;;19.13;63.71;99570.25;5023549;27;100238;-84
2021/07/05 01:49:16;;;;;;;13.93;8.95;;;;;;;19.26;63.60;99597.56;5040749;27;97822;-84
2021/07/05 01:51:42;;;;;;;10.40;8.02;;;;;;;19.23;63.98;99598.66;5040336;27;96693;-84
2021/07/05 01:54:11;;;;;;;9.50;7.70;;;;;;;19.15;64.17;99593.13;5021981;27;97493;-84
2021/07/05 01:56:37;;;;;;;10.38;7.28;;;;;;;19.13;63.65;99576.41;5039634;27;98524;-85
2021/07/05 01:59:03;;;;;;;12.15;8.48;;;;;;;19.15;63.63;99577.16;5022513;27;100640;-86
2021/07/05 02:01:30;;;;;;;11.20;7.90;;;;;;;19.13;63.93;99588.88;5039720;27;96642;-87
2021/07/05 02:03:56;;;;;;;9.55;7.47;;;;;;;19.19;63.85;99599.03;5024193;27;96837;-84
2021/07/05 02:06:21;;;;;;;8.73;7.65;;;;;;;19.12;63.70;99592.53;5040354;27;98019;-84
2021/07/05 02:08:47;;;;;;;8.25;7.45;;;;;;;19.00;64.05;99581.91;5023050;27;101352;-84
2021/07/05 02:11:13;;;;;;;12.95;8.68;;;;;;;19.00;63.98;99578.41;5040887;27;96520;-84
2021/07/05 02:13:38;;;;;;;9.57;8.57;;;;;;;19.09;63.82;99569.69;5040400;27;96895;-84
2021/07/05 02:16:05;;;;;;;12.68;8.90;;;;;;;18.98;64.01;99575.84;5030224;27;101320;-85
2021/07/05 02:18:31;;;;;;;10.93;8.45;;;;;;;18.94;64.21;99581.56;5055467;27;101431;-84
2021/07/05 02:21:02;;;;;;;11.35;8.52;;;;;;;18.93;64.35;99578.03;5006358;27;96978;-84
2021/07/05 02:23:28;;;;;;;14.10;8.55;;;;;;;18.97;64.22;99576.00;5040586;27;96695;-89
2021/07/05 02:25:54;;;;;;;11.63;9.40;;;;;;;18.76;64.54;99554.59;5006395;27;100614;-84
2021/07/05 02:28:27;;;;;;;13.25;9.35;;;;;;;18.78;64.85;99574.78;5023212;27;101813;-84
2021/07/05 02:30:53;;;;;;;13.32;9.30;;;;;;;18.69;64.92;99575.50;5006641;27;96564;-84
2021/07/05 02:33:22;;;;;;;12.93;9.00;;;;;;;18.72;64.89;99590.34;5039968;27;96946;-84
2021/07/05 02:35:48;;;;;;;10.15;8.68;;;;;;;18.69;65.04;99585.28;5018472;27;101732;-87
2021/07/05 02:38:14;;;;;;;13.35;9.60;;;;;;;18.54;65.02;99553.63;4997712;28;101542;-85
2021/07/05 02:40:50;;;;;;;15.20;9.52;;;;;;;18.62;65.14;99571.66;5001603;28;96977;-84
2021/07/05 02:43:17;;;;;;;16.98;9.07;;;;;;;18.42;65.38;99561.75;5002850;28;97401;-84
2021/07/05 02:45:44;;;;;;;13.68;8.18;;;;;;;18.62;64.90;99573.47;5001991;28;101250;-84
2021/07/05 02:48:12;;;;;;;12.68;9.32;;;;;;;18.68;65.09;99586.28;5035975;28;98515;-84
2021/07/05 02:50:40;;;;;;;11.52;8.88;;;;;;;18.57;65.61;99587.09;5001941;28;97201;-84
2021/07/05 02:53:07;;;;;;;12.15;8.68;;;;;;;18.60;65.37;99586.88;5003532;28;96837;-84
2021/07/05 02:55:33;;;;;;;10.00;8.32;;;;;;;18.65;65.30;99587.34;5018929;28;101520;-86
2021/07/05 02:57:58;;;;;;;13.18;9.43;;;;;;;18.61;65.20;99593.84;4998298;28;101294;-84
2021/07/05 03:00:29;;;;;;;11.57;9.20;;;;;;;18.58;65.57;99595.91;5019018;28;97045;-83
2021/07/05 03:02:55;;;;;;;13.57;8.02;;;;;;;18.63;65.08;99583.97;5036137;28;96773;-86
2021/07/05 03:05:23;;;;;;;12.13;8.68;;;;;;;18.52;65.59;99581.31;5019058;28;101341;-84
2021/07/05 03:07:50;;;;;;;11.63;9.88;;;;;;;18.52;65.88;99583.97;5018830;28;98524;-84
2021/07/05 03:10:19;;;;;;;11.07;8.95;;;;;;;18.68;65.16;99589.78;4985955;28;96680;-84
2021/07/05 03:12:45;;;;;;;14.73;9.57;;;;;;;18.71;64.52;99570.91;5018989;28;97157;-84
2021/07/05 03:15:12;;;;;;;18.58;10.38;;;;;;;18.87;64.57;99593.63;4985975;28;100313;-84
2021/07/05 03:17:38;;;;;;;12.95;9.25;;;;;;;18.93;64.67;99598.47;4984216;27;101703;-86
2021/07/05 03:20:06;;;;;;;12.50;9.73;;;;;;;18.77;64.60;99593.53;5045059;27;96844;-84
2021/07/05 03:22:32;;;;;;;15.82;10.38;;;;;;;18.92;64.47;99600.28;5039100;27;96908;-88
2021/07/05 03:24:58;;;;;;;13.82;10.40;;;;;;;18.82;64.55;99591.38;5038357;27;101143;-84
2021/07/05 03:27:26;;;;;;;14.00;10.63;;;;;;;18.97;64.64;99611.41;5038749;27;101504;-84
2021/07/05 03:29:53;;;;;;;16.25;9.98;;;;;;;19.09;64.46;99612.22;5037924;27;96685;-84
2021/07/05 03:32:19;;;;;;;14.57;10.10;;;;;;;19.34;63.83;99613.72;5022199;27;96864;-84
2021/07/05 03:34:44;;;;;;;12.95;9.52;;;;;;;19.32;64.14;99613.03;5038300;27;101754;-84
2021/07/05 03:37:10;;;;;;;13.90;9.40;;;;;;;19.33;63.69;99587.25;5056017;27;98568;-83
2021/07/05 03:39:36;;;;;;;13.45;8.80;;;;;;;19.53;63.22;99609.56;5038929;27;98472;-87
2021/07/05 03:42:02;;;;;;;14.00;10.07;;;;;;;19.57;63.29;99603.00;5039273;27;96912;-84
2021/07/05 03:44:28;;;;;;;12.73;9.82;;;;;;;19.62;63.07;99616.81;5021162;27;101290;-84
2021/07/05 03:46:53;;;;;;;13.95;10.65;;;;;;;19.52;63.27;99611.41;5038342;27;97685;-84
2021/07/05 03:49:19;;;;;;;14.93;9.85;;;;;;;19.69;63.04;99618.00;5022179;27;96533;-83
2021/07/05 03:51:45;;;;;;;13.63;11.00;;;;;;;19.55;63.11;99624.47;5021843;27;96565;-83
2021/07/05 03:54:11;;;;;;;15.23;10.40;;;;;;;19.62;62.80;99611.47;5038368;27;98372;-85
2021/07/05 03:56:37;;;;;;;15.73;10.60;;;;;;;19.90;62.40;99632.19;5020752;27;100999;-88
2021/07/05 03:59:02;;;;;;;12.98;10.18;;;;;;;19.80;62.45;99622.44;5021201;27;97161;-84
2021/07/05 04:01:28;;;;;;;11.63;10.18;;;;;;;19.83;62.85;99622.19;5055757;27;96789;-84
2021/07/05 04:03:54;;;;;;;13.77;10.68;;;;;;;20.03;62.25;99628.50;5020910;27;101483;-84
2021/07/05 04:06:19;;;;;;;15.45;10.38;;;;;;;20.02;62.12;99630.31;5021297;27;102046;-84
2021/07/05 04:08:45;;;;;;;16.13;10.45;;;;;;;20.07;62.12;99627.25;5021263;27;96880;-84
2021/07/05 04:11:11;;;;;;;12.93;9.65;;;;;;;20.24;61.86;99625.84;5021680;27;96871;-83
2021/07/05 04:13:36;;;;;;;11.93;10.25;;;;;;;20.42;61.31;99634.06;5020474;27;100975;-91
2021/07/05 04:16:02;;;;;;;13.93;9.68;;;;;;;20.60;60.89;99635.19;5020569;27;101388;-83
2021/07/05 04:18:28;;;;;;;11.82;9.88;;;;;;;20.56;60.79;99631.09;5035115;27;97259;-84
2021/07/05 04:20:54;;;;;;;15.40;10.85;;;;;;;20.64;60.82;99635.78;4984763;28;97214;-84
2021/07/05 04:23:20;;;;;;;16.65;11.38;;;;;;;20.70;60.53;99627.25;5000738;28;101462;-84
2021/07/05 04:25:46;;;;;;;13.55;10.40;;;;;;;20.76;60.27;99632.88;5000393;28;101250;-84
2021/07/05 04:28:12;;;;;;;14.52;12.50;;;;;;;20.65;60.03;99616.13;5001546;28;96719;-84
2021/07/05 04:30:38;;;;;;;15.98;11.70;;;;;;;20.85;59.87;99641.06;4984508;28;97072;-90
2021/07/05 04:33:04;;;;;;;16.33;12.93;;;;;;;20.86;59.89;99632.94;5000862;28;101345;-84
2021/07/05 04:35:31;;;;;;;14.98;12.32;;;;;;;21.06;59.44;99640.97;5000985;28;101265;-84
2021/07/05 04:37:58;;;;;;;17.92;11.75;;;;;;;21.27;59.00;99641.75;5017692;28;97248;-84
2021/07/05 04:40:29;;;;;;;18.02;12.25;;;;;;;21.42;58.58;99631.56;5001941;28;96837;-83
2021/07/05 04:42:55;;;;;;;17.23;11.60;;;;;;;21.52;58.70;99621.72;4987152;28;101677;-84
2021/07/05 04:45:22;;;;;;;16.23;12.68;;;;;;;21.59;58.10;99619.34;5004716;28;97394;-84
2021/07/05 04:47:49;;;;;;;13.93;12.18;;;;;;;21.65;57.95;99621.47;5004251;28;97197;-84
2021/07/05 04:50:15;;;;;;;13.73;11.75;;;;;;;21.72;58.53;99622.56;4988063;28;97038;-84
2021/07/05 04:52:41;;;;;;;15.88;10.95;;;;;;;21.85;58.05;99612.47;5003909;28;101156;-89
2021/07/05 04:55:08;;;;;;;17.65;11.45;;;;;;;22.06;57.33;99616.81;4987487;28;100627;-84
2021/07/05 04:57:34;;;;;;;17.85;10.05;;;;;;;22.27;56.70;99601.44;4988069;28;97072;-83
2021/07/05 05:00:00;;;;;;;12.23;10.95;;;;;;;22.35;56.15;99598.06;4987378;28;97196;-83
2021/07/05 05:02:27;;;;;;;15.55;11.45;;;;;;;22.71;55.62;99604.41;4987432;28;100382;-83
2021/07/05 05:04:52;;;;;;;14.20;11.30;;;;;;;22.77;55.00;99603.81;5003970;28;97733;-83
2021/07/05 05:07:18;;;;;;;13.70;11.63;;;;;;;22.77;54.53;99598.44;5004679;28;96590;-83
2021/07/05 05:09:44;;;;;;;14.95;11.23;;;;;;;22.94;54.63;99604.84;4987322;28;96814;-84
2021/07/05 05:12:09;;;;;;;13.02;10.13;;;;;;;22.95;54.39;99598.56;5003671;28;101099;-83
2021/07/05 05:14:36;;;;;;;15.73;10.00;;;;;;;23.19;54.16;99598.00;5004017;28;97340;-83
2021/07/05 05:17:03;;;;;;;12.68;9.65;;;;;;;23.37;53.61;99599.84;5004252;28;96652;-83
2021/07/05 05:19:29;;;;;;;12.63;10.25;;;;;;;23.58;53.36;99613.78;5006860;27;96980;-83
2021/07/05 05:21:55;;;;;;;12.18;10.57;;;;;;;23.70;52.90;99604.53;5027740;27;100995;-83
2021/07/05 05:24:20;;;;;;;15.30;10.40;;;;;;;23.82;53.00;99598.94;5029727;27;101677;-84
2021/07/05 05:26:46;;;;;;;17.52;10.02;;;;;;;24.06;52.96;99598.31;5071507;27;96614;-77
2021/07/05 05:29:11;;;;;;;16.13;11.20;;;;;;;24.25;51.93;99602.63;5056999;27;97009;-76
2021/07/05 05:31:37;;;;;;;12.30;10.10;;;;;;;24.14;51.30;99591.19;5039531;27;101069;-76
2021/07/05 05:34:03;;;;;;;12.70;9.30;;;;;;;24.34;50.93;99607.88;5035314;27;101041;-76
2021/07/05 05:36:30;;;;;;;12.52;10.70;;;;;;;24.30;50.70;99584.22;5047002;27;96683;-76
2021/07/05 05:38:56;;;;;;;11.30;9.18;;;;;;;24.75;50.86;99593.88;5056433;27;97561;-77
2021/07/05 05:41:21;;;;;;;12.15;9.63;;;;;;;25.16;50.12;99581.50;5054872;27;100843;-76
2021/07/05 05:43:47;;;;;;;14.02;8.80;;;;;;;25.35;49.29;99566.91;5030269;27;101276;-77
2021/07/05 05:46:15;;;;;;;11.82;8.68;;;;;;;25.69;48.30;99582.91;5052417;27;97027;-76
2021/07/05 05:48:49;;;;;;;10.68;8.75;;;;;;;26.18;47.43;99571.31;5049583;27;97521;-79
2021/07/05 05:51:16;;;;;;;8.80;7.88;;;;;;;26.95;46.45;99579.66;5050183;27;101370;-77
2021/07/05 05:53:43;;;;;;;14.52;7.57;;;;;;;27.22;45.41;99569.44;5046927;27;101022;-80
2021/07/05 05:56:08;;;;;;;11.50;7.75;;;;;;;27.68;44.35;99586.47;5056661;27;96768;-77
2021/07/05 05:58:39;;;;;;;12.43;7.97;;;;;;;27.92;43.32;99585.44;5050926;27;96939;-77
2021/07/05 06:01:05;;;;;;;9.13;7.82;;;;;;;28.91;41.97;99582.53;5048419;27;101123;-76
2021/07/05 06:03:31;;;;;;;12.23;8.35;;;;;;;29.26;40.40;99574.69;5043650;27;100912;-78
2021/07/05 06:05:57;;;;;;;10.95;6.93;;;;;;;30.15;38.84;99574.28;5048483;27;97038;-77
2021/07/05 06:08:22;;;;;;;8.32;7.47;;;;;;;31.15;37.18;99580.25;5048474;27;96930;-76
2021/07/05 06:10:48;;;;;;;12.73;7.50;;;;;;;31.79;36.36;99572.50;5053399;27;99339;-80
2021/07/05 06:13:14;;;;;;;10.45;8.07;;;;;;;32.37;35.25;99585.41;5036492;27;97950;-76
2021/07/05 06:15:40;;;;;;;10.90;8.32;;;;;;;32.79;34.89;99594.13;5019715;27;97164;-77
2021/07/05 06:18:05;;;;;;;12.27;7.50;;;;;;;33.03;34.47;99595.28;5035913;27;97547;-77
2021/07/05 06:20:31;;;;;;;9.73;7.35;;;;;;;32.96;34.50;99590.91;5035986;27;97752;-77
2021/07/05 06:22:56;;;;;;;7.47;6.32;;;;;;;33.68;33.96;99586.16;5053517;27;97802;-77
2021/07/05 06:25:23;;;;;;;11.65;7.55;;;;;;;33.76;32.93;99588.63;5053775;27;97017;-77
2021/07/05 06:27:49;;;;;;;8.13;6.05;;;;;;;34.29;33.02;99595.50;5035831;27;96995;-78
2021/07/05 06:30:15;;;;;;;13.38;6.65;;;;;;;34.69;32.45;99574.97;5018961;27;100399;-77
2021/07/05 06:32:41;;;;;;;12.52;5.90;;;;;;;35.62;31.17;99588.50;5020221;27;100857;-77
2021/07/05 06:35:08;;;;;;;11.70;6.30;;;;;;;36.27;30.52;99593.91;5036067;27;96930;-77
2021/07/05 06:37:34;;;;;;;9.23;6.20;;;;;;;36.51;29.65;99594.75;5054351;27;96929;-78
2021/07/05 06:39:59;;;;;;;14.80;6.05;;;;;;;36.49;30.18;99592.25;5029105;27;100329;-77
2021/07/05 06:42:25;;;;;;;8.85;6.50;;;;;;;36.88;29.62;99594.47;5036180;27;100927;-78
2021/07/05 06:44:51;;;;;;;9.50;5.78;;;;;;;37.69;28.84;99592.50;5034875;27;96775;-81
2021/07/05 06:47:16;;;;;;;8.50;5.97;;;;;;;38.18;28.00;99580.97;5049822;27;96911;-77
2021/07/05 06:49:42;;;;;;;9.45;5.45;;;;;;;38.50;27.77;99587.50;5054562;27;101632;-76
2021/07/05 06:52:08;;;;;;;8.88;5.78;;;;;;;38.83;27.11;99585.72;5048256;27;101067;-77
2021/07/05 06:54:33;;;;;;;8.00;5.25;;;;;;;38.16;27.65;99594.09;5051655;27;97282;-80
2021/07/05 06:57:00;;;;;;;9.35;5.57;;;;;;;37.70;28.34;99582.38;5061039;27;97148;-80
2021/07/05 06:59:26;;;;;;;18.73;5.95;;;;;;;38.12;28.74;99587.47;5030381;27;101283;-80
2021/07/05 07:01:51;;;;;;;14.23;5.45;;;;;;;38.11;28.24;99591.25;5043169;27;100823;-81
2021/07/05 07:04:17;;;;;;;11.75;6.57;;;;;;;37.86;27.99;99589.75;5054233;27;97172;-80
2021/07/05 07:06:47;;;;;;;11.07;5.97;;;;;;;36.64;29.44;99594.50;5065141;27;97158;-82
2021/07/05 07:09:12;;;;;;;9.40;6.03;;;;;;;36.62;29.38;99599.38;5049454;27;98569;-77
2021/07/05 07:11:38;;;;;;;9.05;5.80;;;;;;;36.56;29.75;99592.16;5076799;27;98123;-79
2021/07/05 07:14:04;;;;;;;11.63;6.57;;;;;;;37.05;29.11;99587.19;5041673;27;97080;-79
2021/07/05 07:16:32;;;;;;;8.70;5.13;;;;;;;37.55;28.48;99594.69;5058283;27;97018;-79
2021/07/05 07:21:48;;;;;;;7.25;5.88;;;;;;;37.78;27.87;99588.25;5053051;27;101520;-79
2021/07/05 07:24:18;;;;;;;13.95;5.50;;;;;;;38.08;27.58;99567.13;5021525;27;96576;-77
2021/07/05 07:26:43;;;;;;;10.23;5.05;;;;;;;38.20;27.25;99579.66;5055850;27;97087;-86
2021/07/05 07:29:09;;;;;;;10.32;5.47;;;;;;;38.39;27.73;99582.91;5055885;27;99848;-88
2021/07/05 07:31:35;;;;;;;5.18;4.13;;;;;;;38.85;25.96;99574.50;5039343;27;100389;-90
2021/07/05 07:34:01;;;;;;;4.97;4.43;;;;;;;38.99;25.91;99574.97;5039350;27;97054;-88
2021/07/05 07:36:27;;;;;;;4.55;4.15;;;;;;;39.03;25.62;99581.59;5070335;27;97126;-86
2021/07/05 07:38:57;;;;;;;5.53;4.10;;;;;;;38.87;25.65;99575.13;5038311;27;101077;-90
2021/07/05 07:41:24;;;;;;;8.85;3.92;;;;;;;38.60;25.63;99580.50;5056947;27;100991;-89
2021/07/05 07:43:50;;;;;;;6.55;4.68;;;;;;;38.74;25.52;99576.28;5036684;27;96867;-87
2021/07/05 07:46:15;;;;;;;7.47;4.60;;;;;;;38.67;26.02;99565.53;5054532;27;96764;-90
2021/07/05 07:48:41;;;;;;;5.35;3.67;;;;;;;38.80;25.66;99555.25;5039482;27;101215;-90
2021/07/05 07:51:06;;;;;;;4.82;3.55;;;;;;;38.59;25.58;99565.94;5022197;27;99943;-90
2021/07/05 07:53:32;;;;;;;5.88;3.90;;;;;;;38.72;25.52;99557.38;5022988;27;96673;-91
2021/07/05 07:55:58;;;;;;;7.30;3.58;;;;;;;38.35;26.73;99540.69;5039641;27;96799;-91
2021/07/05 07:58:25;;;;;;;12.77;4.38;;;;;;;38.47;26.60;99554.28;5029727;27;101214;-90
2021/07/05 08:00:51;;;;;;;5.47;4.00;;;;;;;38.32;26.73;99548.56;5031183;27;101530;-89
2021/07/05 08:03:17;;;;;;;7.63;3.92;;;;;;;37.85;26.91;99519.66;5024209;27;98018;-90
2021/07/05 08:05:43;;;;;;;5.20;3.95;;;;;;;37.35;27.78;99504.88;5053917;27;96900;-91
2021/07/05 08:08:09;;;;;;;7.55;3.80;;;;;;;37.14;27.46;99522.81;5035792;27;102026;-89
2021/07/05 08:10:34;;;;;;;6.25;4.47;;;;;;;37.22;27.80;99526.22;5032925;27;99893;-84
2021/07/05 08:13:02;;;;;;;6.55;3.90;;;;;;;37.69;25.98;99542.38;5040404;27;97314;-84
2021/07/05 08:15:28;;;;;;;6.68;3.67;;;;;;;37.95;25.54;99540.91;5054537;27;97413;-83
2021/07/05 08:17:54;;;;;;;4.13;3.30;;;;;;;37.60;26.23;99539.22;5048676;27;101680;-85
2021/07/05 08:20:22;;;;;;;4.18;3.65;;;;;;;37.26;26.72;99546.53;5040712;27;100708;-85
2021/07/05 08:22:53;;;;;;;3.67;3.38;;;;;;;37.60;26.69;99537.31;5048223;27;96927;-85
2021/07/05 08:25:19;;;;;;;5.82;4.07;;;;;;;37.43;27.02;99555.59;5036687;27;97004;-86
2021/07/05 08:27:45;;;;;;;4.68;3.38;;;;;;;36.71;27.33;99554.22;5037560;27;101526;-87
2021/07/05 08:30:11;;;;;;;4.60;3.60;;;;;;;36.64;27.26;99558.97;5016688;27;101490;-86
2021/07/05 08:32:38;;;;;;;5.03;3.60;;;;;;;36.13;27.91;99559.72;5040326;27;98076;-86
2021/07/05 08:35:06;;;;;;;4.70;3.33;;;;;;;36.40;27.83;99557.34;5034016;27;96892;-86
2021/07/05 08:37:31;;;;;;;3.72;3.35;;;;;;;36.45;28.52;99560.16;5035949;27;101101;-86
2021/07/05 08:39:57;;;;;;;5.45;3.20;;;;;;;36.87;28.23;99560.00;5061348;27;97297;-85
2021/07/05 08:42:25;;;;;;;6.53;3.53;;;;;;;36.99;27.43;99552.56;5051177;27;96923;-85
2021/07/05 08:44:51;;;;;;;6.78;3.90;;;;;;;36.41;28.04;99564.47;5027545;27;97115;-85
2021/07/05 08:47:18;;;;;;;4.65;3.80;;;;;;;35.51;28.46;99552.72;5046904;27;97310;-85
2021/07/05 08:49:47;;;;;;;6.50;3.72;;;;;;;35.40;28.64;99550.78;5047810;27;100215;-80
2021/07/05 08:52:13;;;;;;;3.88;3.42;;;;;;;34.97;29.64;99561.84;5048097;27;96844;-87
2021/07/05 08:54:39;;;;;;;3.80;3.38;;;;;;;34.72;29.30;99548.34;5036053;27;98464;-86
2021/07/05 08:57:05;;;;;;;3.80;3.40;;;;;;;34.29;29.78;99533.72;5045464;27;101623;-85
2021/07/05 08:59:32;;;;;;;5.28;4.00;;;;;;;34.16;30.14;99556.47;5044348;27;101266;-85
2021/07/05 09:01:58;;;;;;;3.97;3.35;;;;;;;34.28;29.24;99562.00;5043147;27;97589;-85
2021/07/05 09:04:23;;;;;;;6.35;3.53;;;;;;;33.98;29.73;99545.53;5036751;27;96814;-83
2021/07/05 09:07:07;;;;;;;5.57;3.80;;;;;;;33.90;29.58;99553.97;5034982;27;101096;-84
2021/07/05 09:09:33;;;;;;;6.15;3.63;;;;;;;33.79;29.55;99556.34;5026093;27;99838;-84
2021/07/05 09:12:05;;;;;;;6.47;3.67;;;;;;;33.43;30.46;99561.63;5018023;27;96783;-84
2021/07/05 09:14:30;;;;;;;4.57;3.65;;;;;;;32.99;31.08;99542.44;5033735;27;96946;-85
2021/07/05 09:16:56;;;;;;;8.10;3.55;;;;;;;33.06;31.67;99548.66;5035579;27;98732;-84
2021/07/05 09:19:26;;;;;;;5.22;3.88;;;;;;;33.29;32.02;99555.44;5031742;27;100802;-85
2021/07/05 09:21:58;;;;;;;5.47;4.03;;;;;;;33.22;32.15;99557.34;5064436;27;97291;-84
2021/07/05 09:24:38;;;;;;;4.35;3.47;;;;;;;32.99;31.55;99517.97;5034992;27;96918;-91
2021/07/05 09:27:33;;;;;;;5.28;3.63;;;;;;;32.74;32.52;99542.28;5043083;27;100525;-84
2021/07/05 09:30:08;;;;;;;4.72;4.20;;;;;;;32.54;32.46;99558.66;5059713;27;97998;-83
2021/07/05 09:32:34;;;;;;;6.20;4.10;;;;;;;32.31;32.77;99544.69;5068330;27;96763;-85
2021/07/05 09:35:13;;;;;;;4.80;3.72;;;;;;;31.82;33.78;99554.13;5055935;27;96828;-82
2021/07/05 09:37:54;;;;;;;4.30;3.90;;;;;;;31.79;33.26;99550.78;5047842;27;98236;-84
2021/07/05 09:40:20;;;;;;;7.13;3.92;;;;;;;31.36;33.25;99553.03;5058659;27;101819;-83
2021/07/05 09:42:48;;;;;;;3.72;3.42;;;;;;;31.31;32.84;99553.63;5042179;27;96981;-84
2021/07/05 09:45:28;;;;;;;5.50;3.65;;;;;;;31.33;33.59;99559.69;5055231;27;96976;-82
2021/07/05 09:48:14;;;;;;;5.13;3.90;;;;;;;31.67;33.87;99563.28;5044377;27;98635;-81
2021/07/05 09:50:40;;;;;;;5.75;3.92;;;;;;;32.07;33.71;99576.88;5038601;27;100929;-84
2021/07/05 09:53:28;;;;;;;3.90;3.55;;;;;;;32.23;32.75;99557.47;5054074;27;97291;-84
2021/07/05 09:56:14;;;;;;;4.57;3.90;;;;;;;32.05;33.13;99551.84;5054918;27;96958;-82
2021/07/05 09:58:40;;;;;;;7.95;4.78;;;;;;;31.81;33.95;99564.13;5040625;27;101812;-84
2021/07/05 10:01:05;;;;;;;12.10;4.20;;;;;;;32.13;32.96;99567.91;5054254;27;98459;-84
2021/07/05 10:03:36;;;;;;;4.72;3.67;;;;;;;32.32;31.14;99559.94;5028526;27;96973;-91
2021/07/05 10:06:20;;;;;;;5.78;3.63;;;;;;;32.04;31.95;99565.63;5054823;27;96872;-90
2021/07/05 10:08:47;;;;;;;4.60;4.05;;;;;;;31.98;32.15;99570.84;5056033;27;101320;-85
2021/07/05 10:11:13;;;;;;;5.53;4.10;;;;;;;31.74;33.18;99566.84;5038103;27;101390;-85
2021/07/05 10:13:39;;;;;;;4.72;3.80;;;;;;;31.82;32.75;99568.50;5052009;27;97126;-84
2021/07/05 10:16:13;;;;;;;4.75;3.78;;;;;;;32.18;33.29;99564.56;5050878;27;98046;-85
2021/07/05 10:18:45;;;;;;;6.38;3.70;;;;;;;32.24;33.02;99566.44;5064224;27;97406;-87
2021/07/05 10:21:12;;;;;;;5.07;3.70;;;;;;;32.35;33.52;99559.50;4983679;28;100660;-83
2021/07/05 10:23:38;;;;;;;6.18;3.72;;;;;;;32.43;32.20;99565.53;4984423;28;96781;-86
2021/07/05 10:26:06;;;;;;;5.43;3.60;;;;;;;32.59;31.92;99567.00;4984453;28;97058;-86
2021/07/05 10:28:32;;;;;;;6.72;3.95;;;;;;;32.64;32.38;99564.50;5018884;28;98243;-83
2021/07/05 10:30:58;;;;;;;5.45;3.83;;;;;;;32.40;31.32;99563.25;4985078;28;101595;-83
2021/07/05 10:33:23;;;;;;;5.15;3.30;;;;;;;32.08;30.72;99553.28;5019010;28;97245;-85
2021/07/05 10:35:51;;;;;;;3.90;3.13;;;;;;;31.81;31.08;99564.13;5001658;28;97172;-84
2021/07/05 10:38:34;;;;;;;5.28;3.42;;;;;;;31.89;32.35;99569.34;5017464;28;98186;-85
2021/07/05 10:41:02;;;;;;;5.05;3.50;;;;;;;31.94;31.37;99566.03;5000577;28;98111;-84
2021/07/05 10:43:48;;;;;;;5.07;3.45;;;;;;;31.83;32.48;99572.09;5001144;28;97221;-85
2021/07/05 10:46:44;;;;;;;5.15;3.67;;;;;;;31.88;32.04;99574.97;5000138;28;97564;-84
2021/07/05 10:49:28;;;;;;;6.68;3.70;;;;;;;31.88;31.95;99570.38;4983254;28;101734;-85
2021/07/05 10:52:07;;;;;;;5.70;3.55;;;;;;;32.01;31.73;99566.88;5013910;28;101212;-83
2021/07/05 10:54:54;;;;;;;4.68;3.85;;;;;;;31.84;32.06;99571.03;5000567;28;96863;-83
2021/07/05 10:57:32;;;;;;;6.88;4.22;;;;;;;31.96;32.60;99578.34;5000122;28;96756;-85
2021/07/05 11:00:09;;;;;;;3.80;3.40;;;;;;;32.07;33.22;99571.47;5003152;28;101921;-81
2021/07/05 11:02:41;;;;;;;3.95;3.55;;;;;;;32.04;33.29;99573.78;5018586;28;96732;-84
2021/07/05 11:05:32;;;;;;;5.13;3.70;;;;;;;32.01;32.99;99572.31;5001124;28;97698;-85
2021/07/05 11:08:42;;;;;;;8.27;3.78;;;;;;;31.95;33.06;99568.56;5018362;28;97112;-81
2021/07/05 11:11:10;;;;;;;3.50;3.17;;;;;;;31.62;32.18;99576.66;4989392;27;101327;-85
2021/07/05 11:13:37;;;;;;;5.45;3.05;;;;;;;31.73;32.44;99573.31;5017987;28;97582;-84
2021/07/05 11:16:03;;;;;;;7.30;3.05;;;;;;;31.62;31.88;99551.38;5000376;28;96789;-85
2021/07/05 11:18:54;;;;;;;3.97;3.33;;;;;;;31.65;31.36;99575.38;5001369;27;96979;-84
2021/07/05 11:21:22;;;;;;;2.83;2.42;;;;;;;31.63;30.59;99580.19;5000300;28;100768;-85
2021/07/05 11:26:25;;;;;;;6.55;2.83;;;;;;;31.27;30.46;99579.47;5035913;28;96590;-85
2021/07/05 11:29:16;;;;;;;4.28;3.38;;;;;;;31.12;31.57;99576.91;5001663;28;96832;-85
2021/07/05 11:31:56;;;;;;;4.30;3.15;;;;;;;30.86;32.53;99577.69;5002567;27;101639;-86
2021/07/05 11:34:29;;;;;;;;;;;;;;;30.70;32.67;99579.84;5003091;27;100614;-85